CCA2676 ZGDY-ZUTF
Flight info
| Callsign | CCA2676 |
|---|---|
| Flight time | 1h 8m |
| Altitude | 30100 |
| Route | HUY1D HUY DCT XYO DCT ELDUD ELDUD8M |
| Aircraft | A320/M-SDE3FGHIRWY/LB1 |
Departure
| Time | 2026-04-30 12:03 |
|---|---|
| Airport | Zhangjiajie Hehua International Airport (ZGDY) |
Arrival
| Time | 2026-04-30 13:12 |
|---|---|
| Airport | Chengdu Tianfu International Airport (ZUTF) |
| Time | Latitude | Longitude | Altitude | Speed | Heading |
|---|---|---|---|---|---|
| 2026-04-30 11:46 | 29.10598 | 110.44188 | 641 ft | 0 kts | 345° |
| 2026-04-30 11:52 | 29.10589 | 110.44191 | 642 ft | 3 kts | 346° |
| 2026-04-30 11:53 | 29.10569 | 110.44197 | 641 ft | 3 kts | 347° |
| 2026-04-30 11:53 | 29.10550 | 110.44202 | 644 ft | 3 kts | 338° |
| 2026-04-30 11:53 | 29.10531 | 110.44212 | 634 ft | 3 kts | 336° |
| 2026-04-30 11:53 | 29.10513 | 110.44221 | 641 ft | 3 kts | 332° |
| 2026-04-30 11:54 | 29.10505 | 110.44226 | 634 ft | 0 kts | 329° |
| 2026-04-30 11:56 | 29.10506 | 110.44225 | 634 ft | 1 kts | 326° |
| 2026-04-30 11:56 | 29.10511 | 110.44217 | 644 ft | 1 kts | 303° |
| 2026-04-30 11:57 | 29.10510 | 110.44203 | 631 ft | 3 kts | 258° |
| 2026-04-30 11:57 | 29.10502 | 110.44184 | 631 ft | 2 kts | 247° |
| 2026-04-30 11:57 | 29.10491 | 110.44145 | 637 ft | 8 kts | 255° |
| 2026-04-30 11:57 | 29.10451 | 110.44077 | 639 ft | 13 kts | 197° |
| 2026-04-30 11:58 | 29.10386 | 110.44002 | 638 ft | 17 kts | 256° |
| 2026-04-30 11:58 | 29.10353 | 110.43856 | 642 ft | 21 kts | 257° |
| 2026-04-30 11:58 | 29.10314 | 110.43682 | 634 ft | 24 kts | 255° |
| 2026-04-30 11:58 | 29.10270 | 110.43483 | 645 ft | 27 kts | 256° |
| 2026-04-30 11:59 | 29.10225 | 110.43280 | 639 ft | 27 kts | 255° |
| 2026-04-30 11:59 | 29.10184 | 110.43102 | 634 ft | 18 kts | 255° |
| 2026-04-30 11:59 | 29.10085 | 110.43062 | 643 ft | 18 kts | 162° |
| 2026-04-30 11:59 | 29.10030 | 110.43174 | 635 ft | 18 kts | 74° |
| 2026-04-30 12:00 | 29.10057 | 110.43343 | 645 ft | 32 kts | 68° |
| 2026-04-30 12:00 | 29.10156 | 110.43760 | 645 ft | 89 kts | 75° |
| 2026-04-30 12:00 | 29.10367 | 110.44685 | 637 ft | 148 kts | 76° |
| 2026-04-30 12:00 | 29.10634 | 110.45936 | 1002 ft | 168 kts | 77° |
| 2026-04-30 12:01 | 29.10931 | 110.47264 | 1531 ft | 175 kts | 77° |
| 2026-04-30 12:01 | 29.11247 | 110.48658 | 2066 ft | 189 kts | 78° |
| 2026-04-30 12:01 | 29.11586 | 110.50222 | 2430 ft | 217 kts | 76° |
| 2026-04-30 12:01 | 29.11996 | 110.51984 | 2928 ft | 237 kts | 76° |
| 2026-04-30 12:02 | 29.12420 | 110.53808 | 3801 ft | 238 kts | 77° |
| 2026-04-30 12:02 | 29.12836 | 110.55670 | 4594 ft | 244 kts | 77° |
| 2026-04-30 12:02 | 29.13234 | 110.57563 | 5392 ft | 249 kts | 77° |
| 2026-04-30 12:02 | 29.13645 | 110.59460 | 6427 ft | 244 kts | 76° |
| 2026-04-30 12:03 | 29.14059 | 110.61339 | 7288 ft | 246 kts | 77° |
| 2026-04-30 12:03 | 29.15501 | 110.64912 | 8793 ft | 259 kts | 45° |
| 2026-04-30 12:03 | 29.17014 | 110.66061 | 9500 ft | 267 kts | 21° |
| 2026-04-30 12:04 | 29.18860 | 110.66469 | 10158 ft | 275 kts | 358° |
| 2026-04-30 12:04 | 29.20727 | 110.66033 | 10871 ft | 276 kts | 334° |
| 2026-04-30 12:04 | 29.22282 | 110.64762 | 11575 ft | 275 kts | 309° |
| 2026-04-30 12:04 | 29.23273 | 110.62896 | 12294 ft | 277 kts | 288° |
| 2026-04-30 12:05 | 29.23617 | 110.60729 | 12984 ft | 279 kts | 274° |
| 2026-04-30 12:05 | 29.23765 | 110.58521 | 13786 ft | 278 kts | 274° |
| 2026-04-30 12:05 | 29.23816 | 110.56300 | 14426 ft | 281 kts | 264° |
| 2026-04-30 12:05 | 29.23390 | 110.54113 | 15045 ft | 284 kts | 250° |
| 2026-04-30 12:06 | 29.22543 | 110.52060 | 15653 ft | 287 kts | 244° |
| 2026-04-30 12:06 | 29.21650 | 110.50007 | 16283 ft | 289 kts | 244° |
| 2026-04-30 12:06 | 29.20762 | 110.47933 | 16901 ft | 292 kts | 245° |
| 2026-04-30 12:06 | 29.19870 | 110.45835 | 17517 ft | 294 kts | 244° |
| 2026-04-30 12:07 | 29.18972 | 110.43719 | 18137 ft | 297 kts | 244° |
| 2026-04-30 12:07 | 29.18065 | 110.41584 | 18685 ft | 299 kts | 245° |
| 2026-04-30 12:07 | 29.17058 | 110.39489 | 19208 ft | 303 kts | 236° |
| 2026-04-30 12:07 | 29.15678 | 110.37592 | 19399 ft | 320 kts | 230° |
| 2026-04-30 12:08 | 29.14150 | 110.35651 | 19522 ft | 337 kts | 229° |
| 2026-04-30 12:08 | 29.12538 | 110.33617 | 19642 ft | 353 kts | 229° |
| 2026-04-30 12:08 | 29.10855 | 110.31496 | 19764 ft | 368 kts | 229° |
| 2026-04-30 12:08 | 29.09100 | 110.29284 | 19867 ft | 383 kts | 229° |
| 2026-04-30 12:09 | 29.07283 | 110.26990 | 20012 ft | 395 kts | 229° |
| 2026-04-30 12:09 | 29.05424 | 110.24641 | 20343 ft | 401 kts | 229° |
| 2026-04-30 12:09 | 29.03548 | 110.22268 | 20754 ft | 404 kts | 230° |
| 2026-04-30 12:09 | 29.01653 | 110.19877 | 21173 ft | 407 kts | 230° |
| 2026-04-30 12:10 | 28.99746 | 110.17472 | 21602 ft | 410 kts | 230° |
| 2026-04-30 12:10 | 28.97829 | 110.15051 | 22027 ft | 412 kts | 230° |
| 2026-04-30 12:10 | 28.95900 | 110.12615 | 22472 ft | 414 kts | 230° |
| 2026-04-30 12:10 | 28.93960 | 110.10168 | 22907 ft | 417 kts | 230° |
| 2026-04-30 12:11 | 28.92017 | 110.07705 | 23327 ft | 419 kts | 231° |
| 2026-04-30 12:11 | 28.90308 | 110.05017 | 23705 ft | 419 kts | 240° |
| 2026-04-30 12:11 | 28.88794 | 110.02166 | 24046 ft | 421 kts | 240° |
| 2026-04-30 12:11 | 28.87289 | 109.99345 | 24389 ft | 423 kts | 240° |
| 2026-04-30 12:12 | 28.85734 | 109.96445 | 24741 ft | 424 kts | 240° |
| 2026-04-30 12:12 | 28.84210 | 109.93611 | 25091 ft | 425 kts | 240° |
| 2026-04-30 12:12 | 28.82661 | 109.90732 | 25423 ft | 427 kts | 240° |
| 2026-04-30 12:12 | 28.81107 | 109.87840 | 25764 ft | 429 kts | 240° |
| 2026-04-30 12:13 | 28.79548 | 109.84936 | 26110 ft | 430 kts | 240° |
| 2026-04-30 12:13 | 28.77985 | 109.82021 | 26444 ft | 432 kts | 240° |
| 2026-04-30 12:13 | 28.76415 | 109.79099 | 26773 ft | 433 kts | 240° |
| 2026-04-30 12:13 | 28.74834 | 109.76163 | 27111 ft | 435 kts | 240° |
| 2026-04-30 12:14 | 28.73250 | 109.73222 | 27430 ft | 436 kts | 240° |
| 2026-04-30 12:14 | 28.71662 | 109.70271 | 27748 ft | 437 kts | 240° |
| 2026-04-30 12:14 | 28.70066 | 109.67311 | 28053 ft | 439 kts | 240° |
| 2026-04-30 12:14 | 28.68465 | 109.64346 | 28352 ft | 441 kts | 241° |
| 2026-04-30 12:15 | 28.66856 | 109.61367 | 28658 ft | 442 kts | 241° |
| 2026-04-30 12:15 | 28.65243 | 109.58379 | 28933 ft | 444 kts | 241° |
| 2026-04-30 12:15 | 28.63626 | 109.55385 | 29271 ft | 444 kts | 241° |
| 2026-04-30 12:15 | 28.62008 | 109.52396 | 29687 ft | 442 kts | 241° |
| 2026-04-30 12:16 | 28.60398 | 109.49424 | 30074 ft | 441 kts | 241° |
| 2026-04-30 12:16 | 28.57998 | 109.43135 | 30176 ft | 429 kts | 259° |
| 2026-04-30 12:17 | 28.56979 | 109.33090 | 30168 ft | 426 kts | 266° |
| 2026-04-30 12:17 | 28.56396 | 109.26436 | 30173 ft | 426 kts | 266° |
| 2026-04-30 12:18 | 28.55802 | 109.19731 | 30170 ft | 426 kts | 265° |
| 2026-04-30 12:18 | 28.55209 | 109.13017 | 30176 ft | 427 kts | 266° |
| 2026-04-30 12:19 | 28.54614 | 109.06300 | 30166 ft | 426 kts | 266° |
| 2026-04-30 12:19 | 28.54011 | 108.99595 | 30170 ft | 427 kts | 266° |
| 2026-04-30 12:20 | 28.53403 | 108.92885 | 30162 ft | 426 kts | 266° |
| 2026-04-30 12:20 | 28.52791 | 108.86174 | 30167 ft | 427 kts | 266° |
| 2026-04-30 12:21 | 28.52185 | 108.79469 | 30160 ft | 427 kts | 266° |
| 2026-04-30 12:21 | 28.51580 | 108.72760 | 30159 ft | 426 kts | 266° |
| 2026-04-30 12:22 | 28.50961 | 108.66053 | 30139 ft | 427 kts | 265° |
| 2026-04-30 12:22 | 28.50335 | 108.59349 | 30150 ft | 426 kts | 265° |
| 2026-04-30 12:23 | 28.49712 | 108.52641 | 30149 ft | 427 kts | 265° |
| 2026-04-30 12:23 | 28.49094 | 108.45937 | 30150 ft | 426 kts | 265° |
| 2026-04-30 12:24 | 28.48466 | 108.39240 | 30150 ft | 426 kts | 265° |
| 2026-04-30 12:24 | 28.47837 | 108.32584 | 30150 ft | 426 kts | 265° |
| 2026-04-30 12:25 | 28.47198 | 108.25883 | 30152 ft | 426 kts | 265° |
| 2026-04-30 12:25 | 28.46562 | 108.19183 | 30155 ft | 427 kts | 265° |
| 2026-04-30 12:26 | 28.45921 | 108.12482 | 30151 ft | 426 kts | 265° |
| 2026-04-30 12:26 | 28.45276 | 108.05784 | 30152 ft | 426 kts | 265° |
| 2026-04-30 12:27 | 28.44623 | 107.99086 | 30157 ft | 427 kts | 265° |
| 2026-04-30 12:27 | 28.43967 | 107.92389 | 30158 ft | 427 kts | 265° |
| 2026-04-30 12:28 | 28.43312 | 107.85694 | 30157 ft | 427 kts | 265° |
| 2026-04-30 12:28 | 28.42657 | 107.78995 | 30149 ft | 426 kts | 265° |
| 2026-04-30 12:29 | 28.41998 | 107.72296 | 30157 ft | 427 kts | 265° |
| 2026-04-30 12:29 | 28.41334 | 107.65601 | 30166 ft | 427 kts | 265° |
| 2026-04-30 12:30 | 28.40661 | 107.58904 | 30168 ft | 426 kts | 265° |
| 2026-04-30 12:30 | 28.39989 | 107.52215 | 30168 ft | 426 kts | 265° |
| 2026-04-30 12:31 | 28.39322 | 107.45576 | 30151 ft | 426 kts | 265° |
| 2026-04-30 12:31 | 28.38637 | 107.38849 | 30156 ft | 426 kts | 265° |
| 2026-04-30 12:32 | 28.37947 | 107.32168 | 30158 ft | 426 kts | 265° |
| 2026-04-30 12:32 | 28.37266 | 107.25487 | 30157 ft | 426 kts | 265° |
| 2026-04-30 12:33 | 28.36583 | 107.18810 | 30158 ft | 426 kts | 265° |
| 2026-04-30 12:33 | 28.35898 | 107.12131 | 30160 ft | 426 kts | 265° |
| 2026-04-30 12:34 | 28.35209 | 107.05501 | 30163 ft | 426 kts | 264° |
| 2026-04-30 12:34 | 28.34506 | 106.98825 | 30162 ft | 425 kts | 264° |
| 2026-04-30 12:35 | 28.33801 | 106.92161 | 30161 ft | 425 kts | 265° |
| 2026-04-30 12:35 | 28.33101 | 106.85492 | 30158 ft | 425 kts | 264° |
| 2026-04-30 12:36 | 28.32393 | 106.78835 | 30150 ft | 425 kts | 264° |
| 2026-04-30 12:36 | 28.31686 | 106.72179 | 30149 ft | 425 kts | 265° |
| 2026-04-30 12:37 | 28.30976 | 106.65524 | 30151 ft | 425 kts | 264° |
| 2026-04-30 12:37 | 28.30263 | 106.58869 | 30145 ft | 425 kts | 264° |
| 2026-04-30 12:38 | 28.29671 | 106.53342 | 30138 ft | 424 kts | 264° |
| 2026-04-30 12:38 | 28.28948 | 106.46705 | 30125 ft | 424 kts | 264° |
| 2026-04-30 12:39 | 28.28222 | 106.40062 | 30125 ft | 424 kts | 264° |
| 2026-04-30 12:39 | 28.27378 | 106.32350 | 30117 ft | 424 kts | 264° |
| 2026-04-30 12:40 | 28.26769 | 106.26797 | 30120 ft | 423 kts | 264° |
| 2026-04-30 12:40 | 28.26044 | 106.20175 | 30090 ft | 423 kts | 264° |
| 2026-04-30 12:41 | 28.25310 | 106.13545 | 30091 ft | 424 kts | 264° |
| 2026-04-30 12:41 | 28.24573 | 106.06913 | 30092 ft | 424 kts | 264° |
| 2026-04-30 12:42 | 28.23829 | 106.00276 | 30080 ft | 424 kts | 264° |
| 2026-04-30 12:42 | 28.22959 | 105.92568 | 30082 ft | 424 kts | 264° |
| 2026-04-30 12:43 | 28.22334 | 105.87008 | 30071 ft | 424 kts | 264° |
| 2026-04-30 12:43 | 28.21586 | 105.80416 | 30071 ft | 425 kts | 264° |
| 2026-04-30 12:44 | 28.20827 | 105.73771 | 30067 ft | 425 kts | 264° |
| 2026-04-30 12:44 | 28.20066 | 105.67130 | 30069 ft | 425 kts | 264° |
| 2026-04-30 12:45 | 28.19306 | 105.60494 | 30060 ft | 425 kts | 264° |
| 2026-04-30 12:45 | 28.18536 | 105.53853 | 30067 ft | 425 kts | 264° |
| 2026-04-30 12:46 | 28.18227 | 105.47205 | 30055 ft | 422 kts | 278° |
| 2026-04-30 12:46 | 28.18970 | 105.43995 | 30054 ft | 423 kts | 291° |
| 2026-04-30 12:46 | 28.20362 | 105.41058 | 30051 ft | 425 kts | 303° |
| 2026-04-30 12:47 | 28.22335 | 105.38549 | 30047 ft | 430 kts | 316° |
| 2026-04-30 12:47 | 28.24783 | 105.36577 | 30044 ft | 434 kts | 324° |
| 2026-04-30 12:47 | 28.29900 | 105.32944 | 30028 ft | 434 kts | 324° |
| 2026-04-30 12:48 | 28.35026 | 105.29294 | 30028 ft | 435 kts | 324° |
| 2026-04-30 12:48 | 28.40150 | 105.25628 | 30042 ft | 435 kts | 323° |
| 2026-04-30 12:49 | 28.45267 | 105.21959 | 30042 ft | 435 kts | 323° |
| 2026-04-30 12:49 | 28.50384 | 105.18290 | 30041 ft | 435 kts | 324° |
| 2026-04-30 12:50 | 28.55505 | 105.14630 | 30042 ft | 435 kts | 324° |
| 2026-04-30 12:50 | 28.60591 | 105.10987 | 30041 ft | 435 kts | 323° |
| 2026-04-30 12:51 | 28.65706 | 105.07316 | 30038 ft | 435 kts | 323° |
| 2026-04-30 12:51 | 28.70820 | 105.03635 | 30058 ft | 435 kts | 323° |
| 2026-04-30 12:52 | 28.75928 | 104.99955 | 30058 ft | 434 kts | 323° |
| 2026-04-30 12:52 | 28.81025 | 104.96275 | 30055 ft | 433 kts | 323° |
| 2026-04-30 12:53 | 28.86117 | 104.92595 | 30057 ft | 433 kts | 323° |
| 2026-04-30 12:53 | 28.91211 | 104.88921 | 30053 ft | 433 kts | 324° |
| 2026-04-30 12:54 | 28.96307 | 104.85240 | 29822 ft | 433 kts | 324° |
| 2026-04-30 12:54 | 28.98854 | 104.83396 | 29551 ft | 434 kts | 324° |
| 2026-04-30 12:54 | 29.01405 | 104.81546 | 29293 ft | 435 kts | 324° |
| 2026-04-30 12:55 | 29.03960 | 104.79690 | 29033 ft | 436 kts | 324° |
| 2026-04-30 12:55 | 29.06523 | 104.77827 | 28769 ft | 437 kts | 324° |
| 2026-04-30 12:55 | 29.09091 | 104.75961 | 28513 ft | 438 kts | 324° |
| 2026-04-30 12:55 | 29.11665 | 104.74087 | 28257 ft | 439 kts | 324° |
| 2026-04-30 12:56 | 29.14244 | 104.72211 | 28003 ft | 440 kts | 324° |
| 2026-04-30 12:56 | 29.16829 | 104.70332 | 27753 ft | 441 kts | 324° |
| 2026-04-30 12:56 | 29.19419 | 104.68449 | 27503 ft | 441 kts | 324° |
| 2026-04-30 12:56 | 29.22006 | 104.66568 | 27255 ft | 441 kts | 324° |
| 2026-04-30 12:57 | 29.24591 | 104.64689 | 27014 ft | 439 kts | 324° |
| 2026-04-30 12:57 | 29.27168 | 104.62814 | 26772 ft | 438 kts | 324° |
| 2026-04-30 12:57 | 29.29797 | 104.61048 | 26532 ft | 439 kts | 330° |
| 2026-04-30 12:57 | 29.32647 | 104.59764 | 26311 ft | 442 kts | 340° |
| 2026-04-30 12:58 | 29.35649 | 104.58989 | 25909 ft | 441 kts | 345° |
| 2026-04-30 12:58 | 29.38655 | 104.58322 | 25147 ft | 440 kts | 345° |
| 2026-04-30 12:58 | 29.41653 | 104.57660 | 24412 ft | 438 kts | 345° |
| 2026-04-30 12:58 | 29.44639 | 104.57002 | 23685 ft | 436 kts | 345° |
| 2026-04-30 12:59 | 29.47612 | 104.56349 | 22877 ft | 434 kts | 345° |
| 2026-04-30 12:59 | 29.50564 | 104.55704 | 22235 ft | 429 kts | 345° |
| 2026-04-30 12:59 | 29.53482 | 104.55066 | 21595 ft | 425 kts | 346° |
| 2026-04-30 12:59 | 29.56372 | 104.54430 | 20972 ft | 421 kts | 346° |
| 2026-04-30 13:00 | 29.59233 | 104.53798 | 20398 ft | 417 kts | 345° |
| 2026-04-30 13:00 | 29.62066 | 104.53170 | 19815 ft | 413 kts | 345° |
| 2026-04-30 13:00 | 29.64873 | 104.52547 | 19262 ft | 409 kts | 345° |
| 2026-04-30 13:00 | 29.67657 | 104.51929 | 18726 ft | 406 kts | 345° |
| 2026-04-30 13:01 | 29.70422 | 104.51316 | 18188 ft | 403 kts | 346° |
| 2026-04-30 13:01 | 29.73132 | 104.50715 | 17614 ft | 400 kts | 346° |
| 2026-04-30 13:01 | 29.75896 | 104.50390 | 17093 ft | 401 kts | 357° |
| 2026-04-30 13:01 | 29.78675 | 104.50727 | 16529 ft | 404 kts | 9° |
| 2026-04-30 13:02 | 29.81357 | 104.51718 | 15938 ft | 407 kts | 20° |
| 2026-04-30 13:02 | 29.83978 | 104.52955 | 15328 ft | 407 kts | 19° |
| 2026-04-30 13:02 | 29.86605 | 104.54192 | 14702 ft | 409 kts | 19° |
| 2026-04-30 13:02 | 29.89239 | 104.55429 | 14069 ft | 410 kts | 20° |
| 2026-04-30 13:03 | 29.91886 | 104.56668 | 13350 ft | 411 kts | 20° |
| 2026-04-30 13:03 | 29.94535 | 104.57909 | 12663 ft | 410 kts | 20° |
| 2026-04-30 13:03 | 29.97195 | 104.59075 | 12034 ft | 406 kts | 13° |
| 2026-04-30 13:03 | 29.99921 | 104.59233 | 11865 ft | 384 kts | 347° |
| 2026-04-30 13:04 | 30.02302 | 104.58143 | 11742 ft | 358 kts | 321° |
| 2026-04-30 13:04 | 30.03968 | 104.56161 | 11622 ft | 335 kts | 298° |
| 2026-04-30 13:04 | 30.04928 | 104.53794 | 11498 ft | 319 kts | 288° |
| 2026-04-30 13:04 | 30.05606 | 104.51429 | 11377 ft | 302 kts | 273° |
| 2026-04-30 13:05 | 30.05424 | 104.49112 | 11253 ft | 284 kts | 248° |
| 2026-04-30 13:05 | 30.04451 | 104.47222 | 11118 ft | 270 kts | 226° |
| 2026-04-30 13:05 | 30.03124 | 104.45681 | 10479 ft | 272 kts | 228° |
| 2026-04-30 13:06 | 30.01980 | 104.41582 | 9412 ft | 282 kts | 264° |
| 2026-04-30 13:06 | 30.02117 | 104.39305 | 8930 ft | 289 kts | 279° |
| 2026-04-30 13:06 | 30.02815 | 104.37119 | 8482 ft | 293 kts | 297° |
| 2026-04-30 13:06 | 30.04038 | 104.35249 | 8059 ft | 288 kts | 314° |
| 2026-04-30 13:07 | 30.05594 | 104.33951 | 7925 ft | 264 kts | 331° |
| 2026-04-30 13:07 | 30.07242 | 104.33232 | 7877 ft | 244 kts | 346° |
| 2026-04-30 13:07 | 30.08862 | 104.33001 | 7811 ft | 229 kts | 360° |
| 2026-04-30 13:07 | 30.10424 | 104.33177 | 7770 ft | 220 kts | 12° |
| 2026-04-30 13:08 | 30.11800 | 104.33675 | 7730 ft | 196 kts | 23° |
| 2026-04-30 13:08 | 30.13003 | 104.34238 | 7680 ft | 176 kts | 23° |
| 2026-04-30 13:08 | 30.14100 | 104.34756 | 7624 ft | 169 kts | 24° |
| 2026-04-30 13:08 | 30.15155 | 104.35268 | 7384 ft | 165 kts | 23° |
| 2026-04-30 13:09 | 30.16224 | 104.35763 | 6993 ft | 166 kts | 22° |
| 2026-04-30 13:09 | 30.17318 | 104.36272 | 6491 ft | 173 kts | 23° |
| 2026-04-30 13:09 | 30.18454 | 104.36806 | 5902 ft | 178 kts | 23° |
| 2026-04-30 13:09 | 30.19643 | 104.37346 | 5143 ft | 190 kts | 23° |
| 2026-04-30 13:10 | 30.20880 | 104.37912 | 4492 ft | 190 kts | 23° |
| 2026-04-30 13:10 | 30.22062 | 104.38465 | 4098 ft | 177 kts | 24° |
| 2026-04-30 13:10 | 30.23193 | 104.39020 | 3539 ft | 177 kts | 24° |
| 2026-04-30 13:10 | 30.24335 | 104.39559 | 2989 ft | 176 kts | 24° |
| 2026-04-30 13:11 | 30.25458 | 104.40093 | 2427 ft | 174 kts | 23° |
| 2026-04-30 13:11 | 30.26553 | 104.40601 | 2058 ft | 163 kts | 21° |
| 2026-04-30 13:11 | 30.27560 | 104.41063 | 1796 ft | 150 kts | 21° |
| 2026-04-30 13:11 | 30.28503 | 104.41501 | 1647 ft | 144 kts | 22° |
| 2026-04-30 13:12 | 30.29421 | 104.41935 | 1472 ft | 141 kts | 22° |
| 2026-04-30 13:12 | 30.30255 | 104.42344 | 1453 ft | 116 kts | 19° |
| 2026-04-30 13:12 | 30.30730 | 104.42543 | 1452 ft | 29 kts | 24° |
| 2026-04-30 13:13 | 30.30872 | 104.42728 | 1452 ft | 21 kts | 63° |
| 2026-04-30 13:13 | 30.30849 | 104.42842 | 1452 ft | 6 kts | 98° |
| 2026-04-30 13:13 | 30.30918 | 104.42957 | 1452 ft | 14 kts | 20° |
| 2026-04-30 13:14 | 30.31000 | 104.43022 | 1452 ft | 15 kts | 77° |
| 2026-04-30 13:14 | 30.30968 | 104.43133 | 1452 ft | 15 kts | 112° |
| 2026-04-30 13:14 | 30.31019 | 104.43250 | 1452 ft | 3 kts | 25° |
| 2026-04-30 13:15 | 30.31035 | 104.43259 | 1452 ft | 3 kts | 25° |
| 2026-04-30 13:15 | 30.31075 | 104.43219 | 1452 ft | 2 kts | 290° |
| 2026-04-30 13:15 | 30.31080 | 104.43206 | 1452 ft | 2 kts | 292° |
| 2026-04-30 13:16 | 30.31083 | 104.43196 | 1452 ft | 1 kts | 292° |
| 2026-04-30 13:16 | 30.31084 | 104.43195 | 1452 ft | 0 kts | 292° |